Flight Information

DEPARTURE
RAMONA, CA
Elevation:
1394
Runways:
H1 - 340x66 - ASPH-CONC
9/27 - 5001x150 - ASPH-G
ATIS:
132.025
Ground:
121.65
Tower:
119.875
DESTINATION
,
Elevation:
TPA:
1000 (est.)


6737.8 NM75° True-13° Var61° HDG

Flight Plan:
(click to file on line)

1. Type
2. Aircraft Identification
3. Aircraft Type / Special Equipment
4. True Airspeed
kts
5. Departure Airport
(ICAO code)
6. Arriving Airport
(ICAO code)
7. Cruising Altitude
ft
8. Alternate Airport
(ICAO code)
9. Route of Flight
10. Remarks


00:00:00 Departure ATIS: Destination ATIS:

Clearance Limit:
Route:
Altitude: Expect in minutes
Frequency:
Transponder: (7500 Hijack / 7600 Lost Comms / 7700 Emergency)


KRNM 282053Z 07014G26KT 10SM CLR 17/M12 A3021 RMK AO2 PK WND 07031/2014 SLP224 T01721122 58022
Time: 2022-01-28T20:53:00Z
1643406651
Winds: 70 @ 14 kts
Gusting:26 kts
Visibility: 10.0 sm
Clouds (AGL): CLR
Temperature: 17.2 C
Dew Point: -12.2 C
Pressure: 30.209646 in Hgbr


Notes:

Data extracted from FAA Digital Chart Supplement. Effective: 0901Z Thursday, DEC 2, 2021 to 0901Z Thursday, JAN 27, 2022
Current ATIS data is provided courtisy of PilotEdge.